Time;durP1;ratioP1;P1;durP2;ratioP2;P2;SDS_P1;SDS_P2;PMS_P1;PMS_P2;Temp;Humidity;BMP_temperature;BMP_pressure;BME280_temperature;BME280_humidity;BME280_pressure;Samples;Min_cycle;Max_cycle;Signal;HPM_P1;HPM_P2
2022/09/08 00:02:47;;;;;;;5.03;4.20;;;;;;;23.70;40.99;95392.47;6163815;28;103264;-74
2022/09/08 00:05:55;;;;;;;4.70;4.40;;;;;;;23.65;41.00;95385.34;6163095;28;103175;-73
2022/09/08 00:08:59;;;;;;;4.10;3.80;;;;;;;23.64;40.84;95380.31;6164306;28;103452;-77
2022/09/08 00:12:04;;;;;;;9.00;4.67;;;;;;;23.67;40.84;95393.84;6154972;28;106793;-74
2022/09/08 00:15:08;;;;;;;5.77;5.37;;;;;;;23.69;40.80;95390.84;6139626;28;104267;-74
2022/09/08 00:18:12;;;;;;;6.60;6.10;;;;;;;23.70;40.85;95397.81;6157315;28;104328;-74
2022/09/08 00:21:16;;;;;;;9.57;5.80;;;;;;;23.65;40.78;95397.91;6159157;28;103401;-74
2022/09/08 00:24:19;;;;;;;9.10;7.70;;;;;;;23.68;41.16;95394.63;6159607;28;104113;-75
2022/09/08 00:27:22;;;;;;;8.77;8.07;;;;;;;23.70;40.96;95398.59;6163645;28;103547;-75
2022/09/08 00:30:25;;;;;;;8.93;8.03;;;;;;;23.71;40.98;95400.16;6163502;28;103047;-76
2022/09/08 00:33:30;;;;;;;7.93;7.23;;;;;;;23.70;41.06;95395.13;6154788;28;103140;-73
2022/09/08 00:36:33;;;;;;;7.07;6.37;;;;;;;23.71;41.20;95394.81;6162210;28;103015;-75
2022/09/08 00:39:36;;;;;;;6.03;5.63;;;;;;;23.73;41.18;95392.63;6162979;28;103158;-74
2022/09/08 00:42:40;;;;;;;7.33;6.63;;;;;;;23.70;41.36;95393.25;6163467;28;103682;-75
2022/09/08 00:45:48;;;;;;;6.47;5.97;;;;;;;23.72;41.28;95391.06;6155668;28;103049;-76
2022/09/08 00:48:58;;;;;;;6.97;6.37;;;;;;;23.71;41.18;95392.16;6163237;28;103556;-74
2022/09/08 00:52:02;;;;;;;6.90;6.20;;;;;;;23.68;41.34;95390.06;6163411;28;103335;-76
2022/09/08 00:55:07;;;;;;;6.47;5.97;;;;;;;23.70;41.23;95401.25;6159188;28;103467;-76
2022/09/08 00:58:12;;;;;;;5.50;5.10;;;;;;;23.70;41.20;95393.25;6159697;28;102781;-75
2022/09/08 01:01:15;;;;;;;5.53;5.13;;;;;;;23.71;40.88;95391.38;6163100;28;103466;-76
2022/09/08 01:04:20;;;;;;;5.30;4.90;;;;;;;23.68;40.99;95399.97;6163325;28;103663;-75
2022/09/08 01:14:44;;;;;;;5.20;4.80;;;;;;;23.60;40.89;95391.63;6163661;28;103075;-74
2022/09/08 01:17:49;;;;;;;4.90;4.57;;;;;;;23.59;41.27;95387.38;6159391;28;103410;-76
2022/09/08 01:20:59;;;;;;;5.17;4.80;;;;;;;23.60;41.14;95394.28;6143767;28;104990;-74
2022/09/08 01:24:38;;;;;;;5.20;4.80;;;;;;;23.58;40.90;95385.78;6163019;28;103384;-73
2022/09/08 01:27:45;;;;;;;4.80;4.50;;;;;;;23.54;40.70;95381.38;6155797;28;103505;-75
2022/09/08 01:30:50;;;;;;;4.67;4.07;;;;;;;23.55;40.81;95382.94;6155219;28;103487;-75
2022/09/08 01:33:53;;;;;;;5.30;4.90;;;;;;;23.56;41.02;95379.97;6162476;28;103636;-75
2022/09/08 01:36:59;;;;;;;4.90;4.50;;;;;;;23.58;40.86;95385.78;6161751;28;103409;-74
2022/09/08 01:40:04;;;;;;;4.93;4.63;;;;;;;23.57;40.80;95386.88;6160973;28;103563;-75
2022/09/08 01:43:09;;;;;;;5.00;4.60;;;;;;;23.59;41.12;95395.38;6157029;28;103331;-77
2022/09/08 01:46:13;;;;;;;5.13;4.73;;;;;;;23.56;40.82;95388.00;6161263;28;104035;-79
2022/09/08 01:49:19;;;;;;;5.20;4.70;;;;;;;23.58;40.93;95390.34;6163154;28;103173;-78
2022/09/08 01:52:22;;;;;;;6.50;4.50;;;;;;;23.61;40.93;95389.72;6154694;28;103520;-77
2022/09/08 01:55:26;;;;;;;4.80;4.40;;;;;;;23.60;40.96;95386.28;6162673;28;102919;-77
2022/09/08 01:58:30;;;;;;;4.70;4.40;;;;;;;23.60;40.80;95382.81;6162240;28;103419;-75
2022/09/08 02:01:36;;;;;;;5.00;4.70;;;;;;;23.61;41.20;95392.41;6162835;28;103309;-75
2022/09/08 02:04:39;;;;;;;4.80;4.40;;;;;;;23.59;41.02;95384.69;6153866;28;103363;-76
2022/09/08 02:07:42;;;;;;;4.60;4.20;;;;;;;23.59;41.12;95379.34;6161783;28;103163;-74
2022/09/08 02:10:53;;;;;;;4.70;4.40;;;;;;;23.60;41.15;95380.94;6161017;28;103343;-74
2022/09/08 02:13:58;;;;;;;5.00;4.60;;;;;;;23.54;41.39;95368.03;6161962;28;103359;-76
2022/09/08 02:17:01;;;;;;;4.73;4.43;;;;;;;23.51;41.03;95365.94;6153639;28;106318;-77
2022/09/08 02:20:05;;;;;;;5.17;4.63;;;;;;;23.55;41.19;95372.28;6161906;28;103903;-76
2022/09/08 02:23:08;;;;;;;4.57;4.27;;;;;;;23.54;41.19;95368.03;6161900;28;103159;-73
2022/09/08 02:26:16;;;;;;;5.03;4.73;;;;;;;23.56;41.11;95361.28;6156331;28;103197;-75
2022/09/08 02:29:21;;;;;;;4.93;4.53;;;;;;;23.57;41.46;95365.53;6160675;28;104409;-74
2022/09/08 02:32:24;;;;;;;4.90;4.60;;;;;;;23.56;41.24;95373.84;6161210;28;103122;-75
2022/09/08 02:35:27;;;;;;;5.00;4.60;;;;;;;23.53;41.46;95371.78;6162248;28;105001;-73
2022/09/08 02:38:30;;;;;;;4.73;4.33;;;;;;;23.53;41.11;95377.13;6153076;28;103105;-74
2022/09/08 02:41:33;;;;;;;5.10;4.70;;;;;;;23.56;40.99;95371.16;6160700;28;103583;-74
2022/09/08 02:44:38;;;;;;;5.60;4.40;;;;;;;23.54;41.32;95362.69;6161871;28;103822;-74
2022/09/08 02:47:41;;;;;;;5.10;4.70;;;;;;;23.48;41.06;95367.34;6161259;28;103141;-76
2022/09/08 02:50:44;;;;;;;5.70;4.70;;;;;;;23.52;41.02;95356.81;6153230;28;103175;-74
2022/09/08 02:53:49;;;;;;;4.53;4.23;;;;;;;23.50;41.24;95354.47;6161868;28;103001;-74
2022/09/08 02:56:52;;;;;;;4.60;4.30;;;;;;;23.50;41.24;95359.81;6161531;28;103484;-74
2022/09/08 02:59:57;;;;;;;4.33;4.03;;;;;;;23.49;41.18;95357.44;6157591;28;103396;-75
2022/09/08 03:03:00;;;;;;;5.10;4.70;;;;;;;23.50;40.98;95365.16;6157719;28;106510;-73
2022/09/08 03:06:04;;;;;;;4.80;4.40;;;;;;;23.51;41.17;95357.91;6156834;28;103799;-76
2022/09/08 03:09:08;;;;;;;4.90;4.60;;;;;;;23.50;41.30;95359.81;6162199;28;103494;-74
2022/09/08 03:12:11;;;;;;;6.30;5.40;;;;;;;23.52;41.27;95368.31;6156576;28;103355;-76
2022/09/08 03:15:16;;;;;;;5.93;5.43;;;;;;;23.51;41.17;95365.94;6164946;28;105473;-75
2022/09/08 03:18:19;;;;;;;6.63;6.03;;;;;;;23.52;41.34;95359.50;6164803;28;103531;-76
2022/09/08 03:21:22;;;;;;;6.70;4.97;;;;;;;23.50;41.69;95356.34;6165168;28;105873;-75
2022/09/08 03:24:26;;;;;;;4.90;4.40;;;;;;;23.61;42.73;95365.69;6157704;28;103395;-76
2022/09/08 03:27:29;;;;;;;5.03;4.63;;;;;;;23.68;43.04;95362.56;6151551;28;103558;-78
2022/09/08 03:30:34;;;;;;;5.20;4.80;;;;;;;23.73;43.37;95368.56;6162775;28;103147;-75
2022/09/08 03:33:37;;;;;;;5.30;4.80;;;;;;;23.73;42.51;95368.56;6164421;28;104887;-77
2022/09/08 03:36:40;;;;;;;5.03;4.53;;;;;;;23.71;42.88;95361.97;6158570;28;103195;-78
2022/09/08 03:39:43;;;;;;;5.20;4.73;;;;;;;23.73;42.87;95368.56;6165066;28;103326;-75
2022/09/08 03:42:46;;;;;;;7.83;4.73;;;;;;;23.67;43.33;95367.13;6163591;28;103042;-74
2022/09/08 03:45:51;;;;;;;7.40;5.03;;;;;;;23.77;44.00;95374.09;6156871;28;103505;-74
2022/09/08 03:48:54;;;;;;;7.03;4.77;;;;;;;23.87;43.42;95373.81;6161507;28;103411;-76
2022/09/08 03:51:57;;;;;;;8.00;5.27;;;;;;;23.92;43.10;95375.56;6159862;28;103111;-78
2022/09/08 03:55:00;;;;;;;6.37;5.77;;;;;;;23.89;42.98;95375.09;6160956;28;102973;-76
2022/09/08 03:58:03;;;;;;;5.30;4.90;;;;;;;23.86;43.13;95382.94;6152983;28;104854;-75
2022/09/08 04:01:10;;;;;;;8.37;6.40;;;;;;;23.84;42.73;95382.44;6158471;28;104308;-76
2022/09/08 04:04:13;;;;;;;8.50;7.90;;;;;;;23.81;43.08;95378.50;6162003;28;104226;-76
2022/09/08 04:07:17;;;;;;;10.30;9.50;;;;;;;23.89;42.84;95379.66;6162360;28;103384;-78
2022/09/08 04:10:20;;;;;;;15.53;10.60;;;;;;;23.95;43.17;95380.28;6154173;28;103193;-76
2022/09/08 04:13:24;;;;;;;11.73;10.73;;;;;;;23.97;43.07;95378.88;6160680;28;103336;-75
2022/09/08 04:16:28;;;;;;;11.30;10.30;;;;;;;23.99;43.05;95378.56;6162203;28;103814;-78
2022/09/08 04:19:32;;;;;;;9.70;8.90;;;;;;;24.05;42.98;95383.50;6141757;28;103899;-75
2022/09/08 04:22:35;;;;;;;9.97;9.07;;;;;;;24.02;43.18;95392.13;6136159;28;105589;-76
2022/09/08 04:25:38;;;;;;;19.57;17.87;;;;;;;23.51;43.03;95388.09;6164589;28;103178;-74
2022/09/08 04:28:42;;;;;;;13.00;11.90;;;;;;;23.51;42.58;95387.31;6164062;28;104292;-76
2022/09/08 04:31:47;;;;;;;12.63;11.60;;;;;;;23.62;42.59;95399.31;6156887;28;104260;-75
2022/09/08 04:34:51;;;;;;;12.50;11.40;;;;;;;23.65;42.41;95392.56;6165653;28;103359;-75
2022/09/08 04:37:54;;;;;;;11.10;10.10;;;;;;;23.65;42.25;95387.22;6164393;28;103171;-77
2022/09/08 04:41:04;;;;;;;9.50;8.70;;;;;;;23.66;42.59;95392.25;6164112;28;104191;-74
2022/09/08 04:44:07;;;;;;;10.30;9.40;;;;;;;23.68;42.03;95386.59;6154560;28;103398;-76
2022/09/08 04:47:12;;;;;;;10.03;9.03;;;;;;;23.64;42.02;95375.75;6164839;28;103734;-76
2022/09/08 04:50:15;;;;;;;10.07;8.70;;;;;;;23.65;41.98;95377.31;6164242;28;103409;-76
2022/09/08 04:53:18;;;;;;;10.33;9.33;;;;;;;23.66;42.17;95381.56;6160950;28;103221;-76
2022/09/08 04:56:22;;;;;;;9.90;9.00;;;;;;;23.66;42.49;95391.47;6160373;28;103013;-75
2022/09/08 04:59:27;;;;;;;8.67;7.93;;;;;;;23.53;42.64;95385.94;6165282;28;105926;-76
2022/09/08 05:02:32;;;;;;;9.80;9.10;;;;;;;23.54;42.31;95392.06;6165116;28;103209;-76
2022/09/08 05:05:36;;;;;;;10.57;9.47;;;;;;;23.60;42.47;95391.63;6158434;28;106131;-76
2022/09/08 05:08:39;;;;;;;9.13;8.20;;;;;;;23.59;42.13;95399.94;6164703;28;103444;-74
2022/09/08 05:11:42;;;;;;;9.30;8.40;;;;;;;23.62;42.40;95391.31;6164736;28;104206;-77
2022/09/08 05:14:46;;;;;;;8.10;7.40;;;;;;;23.64;42.22;95391.78;6164381;28;102614;-77
2022/09/08 05:17:50;;;;;;;8.67;7.17;;;;;;;23.65;42.18;95397.91;6157141;28;104260;-76
2022/09/08 05:20:54;;;;;;;9.03;8.23;;;;;;;23.63;42.25;95398.22;6164276;28;103237;-76
2022/09/08 05:24:00;;;;;;;8.03;7.40;;;;;;;23.66;42.52;95405.63;6165011;28;105650;-76
2022/09/08 05:27:03;;;;;;;8.30;7.50;;;;;;;23.59;42.04;95395.38;6164524;28;103530;-76
2022/09/08 05:30:08;;;;;;;7.73;7.00;;;;;;;23.67;42.38;95417.09;6156306;28;102839;-75
2022/09/08 05:33:12;;;;;;;7.80;7.10;;;;;;;23.68;42.25;95411.44;6163057;28;103505;-75
2022/09/08 05:36:17;;;;;;;10.30;7.97;;;;;;;23.69;42.29;95418.41;6163978;28;102990;-76
2022/09/08 05:39:20;;;;;;;7.53;7.03;;;;;;;23.70;42.33;95413.84;6157130;28;103300;-78
2022/09/08 05:42:23;;;;;;;9.00;8.30;;;;;;;23.80;43.47;95417.00;6163261;28;103785;-75
2022/09/08 05:45:26;;;;;;;8.47;7.77;;;;;;;23.88;42.80;95418.16;6164164;28;102762;-76
2022/09/08 05:48:31;;;;;;;8.20;7.40;;;;;;;23.92;43.53;95408.44;6164583;28;103337;-75
2022/09/08 05:51:34;;;;;;;7.53;6.83;;;;;;;23.95;42.59;95415.81;6155288;28;104336;-76
2022/09/08 05:54:37;;;;;;;9.73;7.30;;;;;;;23.97;42.69;95413.63;6164535;28;103351;-75
2022/09/08 05:57:40;;;;;;;7.60;7.00;;;;;;;23.86;42.31;95413.13;6164552;28;105405;-77
2022/09/08 06:00:44;;;;;;;8.70;7.80;;;;;;;23.80;44.26;95406.31;6164291;28;104122;-75
2022/09/08 06:03:53;;;;;;;9.50;8.50;;;;;;;23.85;42.75;95413.41;6156850;28;103863;-76
2022/09/08 06:06:56;;;;;;;7.20;6.60;;;;;;;23.96;42.10;95408.59;6163658;28;103197;-76
2022/09/08 06:10:00;;;;;;;7.27;6.57;;;;;;;23.92;42.02;95394.28;6164080;28;103328;-76
2022/09/08 06:13:03;;;;;;;6.43;5.93;;;;;;;24.14;41.91;95412.94;6160106;28;103003;-76
2022/09/08 06:16:09;;;;;;;7.37;6.50;;;;;;;24.21;42.06;95409.84;6159841;28;105275;-75
2022/09/08 06:19:13;;;;;;;7.97;7.27;;;;;;;24.30;42.07;95415.97;6163391;28;103185;-76
2022/09/08 06:22:16;;;;;;;6.60;5.90;;;;;;;24.34;41.68;95417.72;6163606;28;103350;-76
2022/09/08 06:25:19;;;;;;;7.93;6.60;;;;;;;24.37;41.68;95419.00;6156590;28;103333;-75
2022/09/08 06:28:35;;;;;;;7.30;6.57;;;;;;;24.46;41.79;95419.81;6162652;28;103084;-75
2022/09/08 06:31:43;;;;;;;7.30;6.60;;;;;;;24.56;41.75;95426.75;6163002;28;104365;-74
2022/09/08 06:34:53;;;;;;;6.47;5.97;;;;;;;24.58;41.43;95419.19;6163453;28;105532;-75
2022/09/08 06:37:58;;;;;;;7.03;6.40;;;;;;;24.66;41.56;95421.88;6155960;28;103465;-75
2022/09/08 06:41:10;;;;;;;6.80;6.27;;;;;;;24.70;41.47;95417.53;6163208;28;103069;-77
2022/09/08 06:44:19;;;;;;;6.57;5.93;;;;;;;24.74;41.37;95418.47;6165512;28;103841;-74
2022/09/08 06:47:32;;;;;;;6.43;5.93;;;;;;;24.80;41.41;95427.13;6161381;28;105129;-76
2022/09/08 06:50:52;;;;;;;5.43;5.03;;;;;;;24.85;41.41;95432.31;6166899;28;103277;-76
2022/09/08 06:54:09;;;;;;;5.90;5.40;;;;;;;24.89;41.03;95435.19;6167006;28;103151;-75
2022/09/08 06:57:25;;;;;;;6.10;5.60;;;;;;;24.93;41.11;95436.91;6166428;28;103346;-76
2022/09/08 07:00:45;;;;;;;6.70;5.87;;;;;;;24.99;41.35;95440.22;6158305;28;104326;-76
2022/09/08 07:04:11;;;;;;;5.73;5.33;;;;;;;25.03;41.30;95439.28;6166808;28;103215;-78
2022/09/08 07:07:25;;;;;;;6.67;5.80;;;;;;;25.06;41.41;95445.91;6167495;28;103197;-76
2022/09/08 07:10:34;;;;;;;6.00;5.30;;;;;;;25.09;41.34;95451.41;6158825;28;103372;-76
2022/09/08 07:13:49;;;;;;;6.43;5.50;;;;;;;25.11;41.21;95448.41;6166644;28;105287;-75
2022/09/08 07:16:57;;;;;;;5.77;5.27;;;;;;;25.19;41.04;95457.53;6166856;28;103462;-76
2022/09/08 07:20:00;;;;;;;5.53;5.13;;;;;;;25.16;41.09;95450.13;6166020;28;107578;-75
2022/09/08 07:23:09;;;;;;;5.57;5.07;;;;;;;25.25;41.24;95453.63;6157832;28;103243;-75
2022/09/08 07:26:21;;;;;;;5.50;5.10;;;;;;;25.29;41.09;95451.88;6166262;28;104430;-75
2022/09/08 07:29:29;;;;;;;6.43;5.90;;;;;;;25.33;41.01;95450.13;6166693;28;103567;-76
2022/09/08 07:32:34;;;;;;;6.67;5.67;;;;;;;25.32;40.90;95444.00;6162085;28;103375;-74
2022/09/08 07:36:16;;;;;;;5.70;5.30;;;;;;;25.32;40.82;95438.63;6165968;28;103411;-75
2022/09/08 07:39:25;;;;;;;5.50;5.10;;;;;;;25.36;40.69;95441.50;6166538;28;103959;-75
2022/09/08 07:42:28;;;;;;;5.20;4.80;;;;;;;25.40;41.05;95442.44;6166433;28;102893;-76
2022/09/08 07:45:46;;;;;;;6.17;5.43;;;;;;;25.43;40.72;95449.06;6158253;28;104452;-74
2022/09/08 07:49:00;;;;;;;6.17;5.40;;;;;;;25.49;40.50;95450.47;6165989;28;103329;-74
2022/09/08 07:52:11;;;;;;;5.63;4.97;;;;;;;25.53;40.58;95446.81;6164650;28;105464;-76
2022/09/08 07:55:24;;;;;;;5.30;4.90;;;;;;;25.53;40.50;95441.47;6161023;28;104319;-75
2022/09/08 07:58:33;;;;;;;7.00;5.70;;;;;;;25.56;40.25;95443.53;6163364;28;104715;-76
2022/09/08 08:01:42;;;;;;;5.87;5.30;;;;;;;25.59;40.51;95440.22;6165739;28;104418;-74
2022/09/08 08:05:01;;;;;;;6.03;5.53;;;;;;;25.57;40.27;95425.56;6165702;28;103409;-75
2022/09/08 08:08:14;;;;;;;5.83;5.33;;;;;;;25.61;39.66;95435.31;6158218;28;103538;-75
2022/09/08 08:11:28;;;;;;;5.80;5.40;;;;;;;25.61;39.74;95438.00;6165055;28;103548;-75
2022/09/08 08:14:41;;;;;;;7.60;5.10;;;;;;;25.55;40.40;95436.59;6165855;28;103221;-75
2022/09/08 08:17:49;;;;;;;5.57;5.07;;;;;;;25.52;40.17;95437.22;6161369;28;103335;-77
2022/09/08 08:20:59;;;;;;;5.43;4.97;;;;;;;25.52;39.90;95437.22;6161250;28;103384;-74
2022/09/08 08:24:24;;;;;;;5.80;5.40;;;;;;;25.52;39.88;95429.16;6164056;28;103158;-75
2022/09/08 08:27:34;;;;;;;5.50;5.07;;;;;;;25.53;39.88;95436.09;6165034;28;106053;-75
2022/09/08 08:30:41;;;;;;;5.97;4.97;;;;;;;25.56;39.93;95427.44;6157587;28;104258;-74
2022/09/08 08:33:48;;;;;;;5.40;4.80;;;;;;;25.57;39.92;95423.66;6165702;28;103531;-75
2022/09/08 08:36:54;;;;;;;5.90;5.40;;;;;;;25.61;40.08;95429.16;6165472;28;103095;-74
2022/09/08 08:39:59;;;;;;;5.73;5.07;;;;;;;25.59;39.83;95426.81;6165153;28;103111;-73
2022/09/08 08:43:18;;;;;;;5.73;5.23;;;;;;;25.57;40.13;95420.19;6157987;28;106196;-74
2022/09/08 08:46:31;;;;;;;6.40;5.80;;;;;;;25.52;39.91;95407.72;6165787;28;105250;-74
2022/09/08 08:50:01;;;;;;;5.73;5.33;;;;;;;25.59;40.25;95402.69;6164790;28;103330;-72
2022/09/08 08:53:26;;;;;;;4.93;4.63;;;;;;;25.64;40.09;95397.16;6157293;28;103329;-75
2022/09/08 08:56:50;;;;;;;5.50;5.10;;;;;;;25.66;40.22;95394.94;6165129;28;103337;-74
2022/09/08 09:00:05;;;;;;;5.27;4.87;;;;;;;25.64;40.13;95389.09;6167879;28;107456;-74
2022/09/08 09:03:50;;;;;;;5.40;4.90;;;;;;;25.67;40.05;95385.78;6162008;28;103524;-75
2022/09/08 09:07:14;;;;;;;5.67;5.17;;;;;;;25.66;39.83;95373.50;6129278;28;103267;-74
2022/09/08 09:10:45;;;;;;;5.53;4.93;;;;;;;25.69;39.91;95372.06;6164367;28;105394;-73
2022/09/08 09:14:06;;;;;;;5.60;5.10;;;;;;;25.74;39.51;95365.75;6154070;28;103659;-74
2022/09/08 09:17:32;;;;;;;5.40;4.90;;;;;;;25.77;39.74;95359.75;6154569;28;103040;-73
2022/09/08 09:20:57;;;;;;;6.00;5.40;;;;;;;25.79;39.38;95361.00;6164586;28;103496;-73
2022/09/08 09:24:09;;;;;;;6.07;5.50;;;;;;;25.80;39.90;95353.72;6165512;28;105269;-74
2022/09/08 09:27:17;;;;;;;9.90;5.80;;;;;;;25.80;39.75;95348.38;6157102;28;103528;-73
2022/09/08 09:30:23;;;;;;;5.73;5.30;;;;;;;25.79;39.70;95344.91;6164652;28;103819;-73
2022/09/08 09:33:46;;;;;;;5.70;5.20;;;;;;;25.83;39.77;95335.09;6165119;28;104123;-73
2022/09/08 09:37:11;;;;;;;5.80;5.40;;;;;;;25.81;39.81;95331.19;6164542;28;102995;-73
2022/09/08 09:40:28;;;;;;;6.37;5.77;;;;;;;25.84;39.60;95334.00;6159065;28;103037;-73
2022/09/08 09:43:50;;;;;;;5.57;5.07;;;;;;;25.83;39.89;95334.31;6163525;28;103912;-74
2022/09/08 09:47:25;;;;;;;5.83;5.33;;;;;;;25.67;40.19;95332.16;6164052;28;104562;-77
2022/09/08 09:50:53;;;;;;;7.23;6.10;;;;;;;25.58;39.89;95328.75;6139908;28;106119;-74
2022/09/08 09:54:25;;;;;;;7.47;6.87;;;;;;;25.57;40.21;95323.72;6164311;28;103071;-75
2022/09/08 09:57:49;;;;;;;7.07;6.47;;;;;;;25.56;40.45;95314.09;6162482;28;102983;-76
2022/09/08 10:01:18;;;;;;;7.30;6.63;;;;;;;25.61;40.41;95305.88;6148494;28;103347;-76
2022/09/08 10:04:48;;;;;;;7.13;6.43;;;;;;;25.59;40.13;95298.16;6136755;28;103050;-75
2022/09/08 10:08:27;;;;;;;10.80;6.60;;;;;;;25.52;40.89;95287.13;6138885;28;103641;-77
2022/09/08 10:12:12;;;;;;;8.17;6.57;;;;;;;25.57;41.10;95281.63;6133626;28;104763;-75
2022/09/08 10:15:51;;;;;;;9.20;6.43;;;;;;;25.55;41.74;95275.81;6147752;28;103219;-75
2022/09/08 10:19:30;;;;;;;8.60;7.33;;;;;;;25.58;41.61;95280.50;6155632;28;105181;-76
2022/09/08 10:23:02;;;;;;;8.43;7.63;;;;;;;25.58;41.74;95277.03;6165604;28;106154;-76
2022/09/08 10:26:39;;;;;;;9.87;8.10;;;;;;;25.55;41.63;95270.44;6163787;28;103377;-76
2022/09/08 10:30:07;;;;;;;9.10;8.40;;;;;;;25.56;41.55;95269.34;6152534;28;102908;-76
2022/09/08 10:33:27;;;;;;;9.50;8.50;;;;;;;25.55;41.80;95262.41;6169118;28;103980;-75
2022/09/08 10:36:53;;;;;;;9.30;8.40;;;;;;;25.54;41.61;95250.13;6161633;28;103219;-77
2022/09/08 10:40:16;;;;;;;8.10;7.40;;;;;;;25.51;41.58;95239.22;6166963;28;103101;-75
2022/09/08 10:43:51;;;;;;;8.93;8.03;;;;;;;25.49;41.47;95230.72;6167770;28;105358;-78
2022/09/08 10:47:44;;;;;;;8.67;7.97;;;;;;;25.50;41.65;95230.41;6159538;28;105554;-75
2022/09/08 10:50:52;;;;;;;9.57;8.77;;;;;;;25.49;41.63;95239.56;6078087;28;105255;-79
2022/09/08 10:54:34;;;;;;;8.77;7.90;;;;;;;25.50;41.56;95240.34;6167228;28;103235;-76
2022/09/08 10:58:00;;;;;;;9.73;8.93;;;;;;;25.47;41.89;95225.69;6134443;28;105017;-77
2022/09/08 11:01:31;;;;;;;10.30;9.50;;;;;;;25.48;41.71;95227.25;6166313;28;104653;-77
2022/09/08 11:05:09;;;;;;;10.63;9.73;;;;;;;25.48;42.01;95223.81;6166840;28;103281;-77
2022/09/08 11:08:39;;;;;;;11.30;9.80;;;;;;;25.49;42.08;95220.78;6130773;28;104920;-76
2022/09/08 11:12:14;;;;;;;10.10;9.30;;;;;;;25.43;42.16;95216.75;6165796;28;103007;-77
2022/09/08 11:15:45;;;;;;;10.67;9.57;;;;;;;25.39;42.09;95207.78;6165037;28;103175;-76
2022/09/08 11:19:30;;;;;;;10.00;9.10;;;;;;;25.46;42.12;95215.31;6166144;28;103195;-77
2022/09/08 11:22:57;;;;;;;10.63;9.73;;;;;;;25.47;42.09;95214.97;6162035;28;103554;-77
2022/09/08 11:26:13;;;;;;;9.63;8.97;;;;;;;25.36;42.18;95201.16;6167171;28;102998;-76
2022/09/08 11:29:17;;;;;;;9.97;9.23;;;;;;;25.46;41.95;95207.25;6167000;28;105418;-76
2022/09/08 11:32:31;;;;;;;10.70;9.80;;;;;;;25.43;42.36;95214.06;6160447;28;103696;-76
2022/09/08 11:35:49;;;;;;;10.20;9.40;;;;;;;25.42;42.54;95201.78;6168489;28;106068;-76
2022/09/08 11:39:01;;;;;;;12.13;11.17;;;;;;;25.44;42.50;95209.47;6167805;28;103448;-77
2022/09/08 11:42:29;;;;;;;13.60;12.40;;;;;;;25.42;42.77;95207.13;6166187;28;103328;-76
2022/09/08 11:45:48;;;;;;;15.27;13.87;;;;;;;25.38;42.48;95204.31;6161991;28;103412;-76
2022/09/08 11:49:13;;;;;;;18.17;16.53;;;;;;;25.37;42.55;95209.97;6164734;28;104966;-77
2022/09/08 11:52:56;;;;;;;22.70;20.60;;;;;;;25.33;42.48;95207.13;6163743;28;102764;-75
2022/09/08 11:56:47;;;;;;;27.33;24.90;;;;;;;25.27;42.65;95210.31;6158535;28;103103;-76
2022/09/08 12:00:11;;;;;;;16.57;14.93;;;;;;;25.14;42.87;95201.38;6167527;28;103345;-77
2022/09/08 12:03:58;;;;;;;16.10;14.70;;;;;;;25.30;42.63;95209.66;6167027;28;103408;-75
2022/09/08 12:07:19;;;;;;;19.90;18.07;;;;;;;25.38;43.17;95200.84;6144197;28;103915;-76
2022/09/08 12:10:47;;;;;;;21.30;19.10;;;;;;;25.42;42.80;95204.44;6166064;28;103444;-76
2022/09/08 12:14:01;;;;;;;20.43;18.53;;;;;;;25.45;42.82;95201.13;6165252;28;103316;-76
2022/09/08 12:17:48;;;;;;;22.43;20.13;;;;;;;25.43;43.54;95195.31;6157428;28;103014;-75
2022/09/08 12:21:14;;;;;;;22.40;20.10;;;;;;;25.48;43.93;95203.16;6165292;28;103503;-77
2022/09/08 12:24:35;;;;;;;26.23;22.87;;;;;;;25.53;47.05;95200.28;6164392;28;102966;-78
2022/09/08 12:28:19;;;;;;;26.87;24.27;;;;;;;25.53;47.23;95205.63;6161411;28;102783;-74
2022/09/08 12:31:46;;;;;;;28.27;25.20;;;;;;;25.50;47.15;95205.50;6163859;28;103919;-77
2022/09/08 12:35:17;;;;;;;35.13;24.03;;;;;;;25.52;47.25;95201.38;6164851;28;103000;-75
2022/09/08 12:38:58;;;;;;;26.90;24.33;;;;;;;25.54;48.75;95195.69;6164631;28;104098;-76
2022/09/08 12:42:24;;;;;;;25.90;23.50;;;;;;;25.54;48.40;95195.69;6156107;28;103065;-76
2022/09/08 12:45:40;;;;;;;27.13;22.20;;;;;;;25.53;48.79;95200.28;6164611;28;103332;-77
2022/09/08 12:49:13;;;;;;;26.37;23.87;;;;;;;25.53;49.39;95192.25;6165254;28;103049;-76
2022/09/08 12:52:44;;;;;;;26.10;23.63;;;;;;;25.53;49.18;95194.91;6157233;28;103634;-78
2022/09/08 12:55:58;;;;;;;24.70;22.40;;;;;;;25.54;48.87;95188.47;6165213;28;102944;-78
2022/09/08 12:59:13;;;;;;;24.93;22.53;;;;;;;25.53;49.30;95178.84;6163745;28;103206;-77
2022/09/08 13:02:50;;;;;;;25.10;22.50;;;;;;;25.25;49.48;95180.41;6160333;28;104314;-78
2022/09/08 13:06:25;;;;;;;29.60;24.87;;;;;;;24.91;52.98;95179.44;6164324;28;103367;-77
2022/09/08 13:09:32;;;;;;;27.40;24.13;;;;;;;24.89;53.21;95184.31;6164264;28;103176;-79
2022/09/08 13:13:01;;;;;;;28.77;24.60;;;;;;;24.81;54.98;95170.94;6164322;28;103032;-77
2022/09/08 13:16:34;;;;;;;31.93;23.37;;;;;;;24.81;54.39;95178.97;6155192;28;106492;-79
2022/09/08 13:19:49;;;;;;;26.20;23.40;;;;;;;24.64;54.89;95171.75;6163284;28;103001;-77
2022/09/08 13:23:07;;;;;;;24.80;22.10;;;;;;;24.54;54.85;95180.13;6164616;28;102979;-79
2022/09/08 13:26:34;;;;;;;23.83;21.23;;;;;;;24.52;54.09;95176.97;6156273;28;103483;-78
2022/09/08 13:30:01;;;;;;;27.77;21.80;;;;;;;24.47;53.47;95172.56;6164438;28;103026;-78
2022/09/08 13:33:39;;;;;;;32.37;22.10;;;;;;;24.43;52.78;95164.41;6164189;28;103114;-78
2022/09/08 13:37:12;;;;;;;25.57;19.57;;;;;;;24.40;52.07;95167.72;6161501;28;103776;-78
2022/09/08 13:40:37;;;;;;;22.60;20.40;;;;;;;24.44;51.53;95165.19;6162799;28;102611;-78
2022/09/08 13:43:56;;;;;;;21.87;19.47;;;;;;;24.39;51.22;95154.66;6163694;28;103809;-78
2022/09/08 13:47:24;;;;;;;24.30;20.27;;;;;;;24.38;51.06;95150.41;6164324;28;103122;-78
2022/09/08 13:50:58;;;;;;;22.83;20.03;;;;;;;24.36;51.13;95157.94;6154512;28;102870;-77
2022/09/08 13:54:22;;;;;;;22.27;19.70;;;;;;;24.26;50.89;95159.06;6162205;28;103096;-79
2022/09/08 13:57:51;;;;;;;24.23;18.53;;;;;;;24.19;50.17;95150.72;6164249;28;103309;-77
2022/09/08 14:01:05;;;;;;;19.37;17.50;;;;;;;24.16;50.16;95144.13;6154676;28;103233;-76
2022/09/08 14:04:27;;;;;;;20.03;17.93;;;;;;;24.06;49.78;95144.47;6164615;28;104378;-78
2022/09/08 14:07:33;;;;;;;21.23;19.20;;;;;;;23.98;50.00;95147.09;6164088;28;103919;-77
2022/09/08 14:11:11;;;;;;;22.03;19.77;;;;;;;24.13;51.37;95143.97;6165072;28;103248;-78
2022/09/08 14:15:04;;;;;;;23.03;20.60;;;;;;;24.18;52.90;95138.47;6062189;28;104570;-78
2022/09/08 14:18:23;;;;;;;21.20;19.10;;;;;;;24.31;53.83;95137.50;6163164;28;103111;-78
2022/09/08 14:21:37;;;;;;;21.47;18.73;;;;;;;24.48;54.37;95137.47;6162696;28;103454;-77
2022/09/08 14:24:49;;;;;;;25.20;18.70;;;;;;;24.52;54.01;95136.81;6154937;28;103262;-78
2022/09/08 14:28:03;;;;;;;21.03;19.13;;;;;;;24.52;54.26;95142.19;6163157;28;103253;-80
2022/09/08 14:31:17;;;;;;;19.13;17.43;;;;;;;24.50;53.90;95132.59;6163779;28;103024;-79
2022/09/08 14:34:30;;;;;;;20.17;18.27;;;;;;;24.48;53.51;95128.66;6161249;28;103046;-78
2022/09/08 14:37:46;;;;;;;20.37;18.67;;;;;;;24.43;52.40;95134.19;6163698;28;104306;-78
2022/09/08 14:40:58;;;;;;;19.30;17.60;;;;;;;24.19;51.36;95140.84;6163166;28;103216;-77
2022/09/08 14:44:17;;;;;;;19.07;17.20;;;;;;;24.15;53.64;95129.19;6162617;28;103633;-80
2022/09/08 14:47:30;;;;;;;19.50;17.47;;;;;;;24.41;51.99;95131.84;6154815;28;103482;-78
2022/09/08 14:50:53;;;;;;;18.57;16.77;;;;;;;24.69;51.88;95129.56;6162125;28;103221;-78
2022/09/08 14:54:15;;;;;;;18.27;16.40;;;;;;;24.84;51.44;95136.28;6161983;28;105220;-78
2022/09/08 14:57:27;;;;;;;18.43;16.60;;;;;;;24.94;51.45;95138.63;6158576;28;102965;-77
2022/09/08 15:00:39;;;;;;;18.13;16.70;;;;;;;24.98;51.31;95149.47;6159420;28;103355;-77
2022/09/08 15:03:54;;;;;;;19.13;17.23;;;;;;;25.00;50.92;95141.91;6163129;28;103535;-77
2022/09/08 15:07:00;;;;;;;18.13;16.43;;;;;;;25.02;50.92;95137.78;6166704;28;102907;-79